createdAt,value
2023-04-20T00:00:07.426Z,21.58
2023-04-20T00:01:07.466Z,21.58
2023-04-20T00:02:07.634Z,21.59
2023-04-20T00:03:07.779Z,21.58
2023-04-20T00:04:07.693Z,21.56
2023-04-20T00:05:07.665Z,21.56
2023-04-20T00:06:07.687Z,21.56
2023-04-20T00:07:07.717Z,21.58
2023-04-20T00:08:07.758Z,21.55
2023-04-20T00:09:07.808Z,21.55
2023-04-20T00:10:07.849Z,21.55
2023-04-20T00:11:07.898Z,21.55
2023-04-20T00:12:08.632Z,21.55
2023-04-20T00:13:08.049Z,21.52
2023-04-20T00:14:08.136Z,21.55
2023-04-20T00:15:08.235Z,21.53
2023-04-20T00:16:08.334Z,21.53
2023-04-20T00:17:08.602Z,21.53
2023-04-20T00:18:08.677Z,21.52
2023-04-20T00:19:08.629Z,21.51
2023-04-20T00:20:08.740Z,21.52
2023-04-20T00:21:08.839Z,21.51
2023-04-20T00:22:08.940Z,21.51
2023-04-20T00:23:09.055Z,21.52
2023-04-20T00:24:10.149Z,21.51
2023-04-20T00:25:09.246Z,21.51
2023-04-20T00:26:09.326Z,21.51
2023-04-20T00:27:09.429Z,21.51
2023-04-20T00:28:09.542Z,21.48
2023-04-20T00:29:09.629Z,21.48
2023-04-20T00:30:09.797Z,21.48
2023-04-20T00:31:09.835Z,21.48
2023-04-20T00:32:09.884Z,21.48
2023-04-20T00:33:09.990Z,21.48
2023-04-20T00:34:10.037Z,21.45
2023-04-20T00:35:10.059Z,21.46
2023-04-20T00:36:10.092Z,21.45
2023-04-20T00:37:10.132Z,21.44
2023-04-20T00:38:10.160Z,21.45
2023-04-20T00:39:10.213Z,21.46
2023-04-20T00:40:10.247Z,21.45
2023-04-20T00:41:10.289Z,21.44
2023-04-20T00:42:10.330Z,21.45
2023-04-20T00:43:10.378Z,21.41
2023-04-20T00:44:10.470Z,21.45
2023-04-20T00:45:10.544Z,21.45
2023-04-20T00:46:10.685Z,21.44
2023-04-20T00:47:10.763Z,21.46
2023-04-20T00:48:10.864Z,21.44
2023-04-20T00:49:10.982Z,21.44
2023-04-20T00:50:12.004Z,21.44
2023-04-20T00:51:11.041Z,21.42
2023-04-20T00:52:11.084Z,21.44
2023-04-20T00:53:11.111Z,21.42
2023-04-20T00:54:11.163Z,21.44
2023-04-20T00:55:11.200Z,21.40
2023-04-20T00:56:11.241Z,21.41
2023-04-20T00:57:11.277Z,21.41
2023-04-20T00:58:11.315Z,21.40
2023-04-20T00:59:11.408Z,21.42
2023-04-20T01:00:11.507Z,21.41
2023-04-20T01:01:11.714Z,21.41
2023-04-20T01:02:13.686Z,21.42
2023-04-20T01:03:11.869Z,21.41
2023-04-20T01:04:11.961Z,21.40
2023-04-20T01:05:12.010Z,21.40
2023-04-20T01:06:12.126Z,21.40
2023-04-20T01:07:12.215Z,21.41
2023-04-20T01:08:12.305Z,21.37
2023-04-20T01:09:12.395Z,21.40
2023-04-20T01:10:12.476Z,21.40
2023-04-20T01:11:12.547Z,21.37
2023-04-20T01:12:13.161Z,21.38
2023-04-20T01:13:12.616Z,21.38
2023-04-20T01:14:12.643Z,21.37
2023-04-20T01:15:12.677Z,21.37
2023-04-20T01:16:12.817Z,21.37
2023-04-20T01:17:12.744Z,21.35
2023-04-20T01:18:12.781Z,21.35
2023-04-20T01:19:12.823Z,21.33
2023-04-20T01:20:12.855Z,21.33
2023-04-20T01:21:12.946Z,21.33
2023-04-20T01:22:12.923Z,21.34
2023-04-20T01:23:12.963Z,21.34
2023-04-20T01:24:13.066Z,21.31
2023-04-20T01:25:13.171Z,21.34
2023-04-20T01:26:13.266Z,21.33
2023-04-20T01:27:13.289Z,21.33
2023-04-20T01:28:13.333Z,21.30
2023-04-20T01:29:13.373Z,21.30
2023-04-20T01:30:13.418Z,21.30
2023-04-20T01:31:13.571Z,21.33
2023-04-20T01:32:13.479Z,21.30
2023-04-20T01:33:13.497Z,21.27
2023-04-20T01:34:13.527Z,21.28
2023-04-20T01:35:13.551Z,21.25
2023-04-20T01:36:13.585Z,21.30
2023-04-20T01:37:13.616Z,21.30
2023-04-20T01:38:13.646Z,21.25
2023-04-20T01:39:13.721Z,21.27
2023-04-20T01:40:13.699Z,21.28
2023-04-20T01:41:13.709Z,21.25
2023-04-20T01:42:13.743Z,21.25
2023-04-20T01:43:13.772Z,21.25
2023-04-20T01:44:13.817Z,21.25
2023-04-20T01:45:13.831Z,21.25
2023-04-20T01:46:13.946Z,21.25
2023-04-20T01:47:14.893Z,21.27
2023-04-20T01:48:13.913Z,21.24
2023-04-20T01:49:13.941Z,21.25
2023-04-20T01:50:13.975Z,21.24
2023-04-20T01:51:13.999Z,21.23
2023-04-20T01:52:14.018Z,21.24
2023-04-20T01:53:14.056Z,21.23
2023-04-20T01:54:14.076Z,21.21
2023-04-20T01:55:14.117Z,21.24
2023-04-20T01:56:14.138Z,21.23
2023-04-20T01:57:14.147Z,21.20
2023-04-20T01:58:14.187Z,21.21
2023-04-20T01:59:15.326Z,21.23
2023-04-20T02:00:14.231Z,21.23
2023-04-20T02:01:14.298Z,21.21
2023-04-20T02:02:14.329Z,21.21
2023-04-20T02:03:14.416Z,21.20
2023-04-20T02:04:14.360Z,21.18
2023-04-20T02:05:14.358Z,21.18
2023-04-20T02:06:14.375Z,21.17
2023-04-20T02:07:14.403Z,21.18
2023-04-20T02:08:14.435Z,21.20
2023-04-20T02:09:14.517Z,21.18
2023-04-20T02:10:14.496Z,21.18
2023-04-20T02:11:14.497Z,21.17
2023-04-20T02:12:14.528Z,21.17
2023-04-20T02:13:14.584Z,21.18
2023-04-20T02:14:14.583Z,21.14
2023-04-20T02:15:14.629Z,21.17
2023-04-20T02:16:14.671Z,21.15
2023-04-20T02:17:14.749Z,21.17
2023-04-20T02:18:14.737Z,21.17
2023-04-20T02:19:14.852Z,21.17
2023-04-20T02:20:14.805Z,21.17
2023-04-20T02:21:14.877Z,21.17
2023-04-20T02:22:14.953Z,21.15
2023-04-20T02:23:15.011Z,21.15
2023-04-20T02:24:15.067Z,21.17
2023-04-20T02:25:15.129Z,21.13
2023-04-20T02:26:15.204Z,21.13
2023-04-20T02:27:15.293Z,21.14
2023-04-20T02:28:15.387Z,21.13
2023-04-20T02:29:15.702Z,21.13
2023-04-20T02:30:15.513Z,21.13
2023-04-20T02:31:15.601Z,21.13
2023-04-20T02:32:15.613Z,21.11
2023-04-20T02:33:15.654Z,21.14
2023-04-20T02:34:15.673Z,21.11
2023-04-20T02:35:15.754Z,21.11
2023-04-20T02:36:15.805Z,21.10
2023-04-20T02:37:15.855Z,21.10
2023-04-20T02:38:15.907Z,21.11
2023-04-20T02:39:16.413Z,21.10
2023-04-20T02:40:15.982Z,21.10
2023-04-20T02:41:15.974Z,21.08
2023-04-20T02:42:15.991Z,21.10
2023-04-20T02:43:16.022Z,21.07
2023-04-20T02:44:16.057Z,21.10
2023-04-20T02:45:16.072Z,21.10
2023-04-20T02:46:16.166Z,21.07
2023-04-20T02:47:16.136Z,21.06
2023-04-20T02:48:16.165Z,21.07
2023-04-20T02:49:16.405Z,21.07
2023-04-20T02:50:16.236Z,21.10
2023-04-20T02:51:16.245Z,21.08
2023-04-20T02:52:16.280Z,21.07
2023-04-20T02:53:16.308Z,21.08
2023-04-20T02:54:16.346Z,21.08
2023-04-20T02:55:16.367Z,21.08
2023-04-20T02:56:16.412Z,21.06
2023-04-20T02:57:16.433Z,21.06
2023-04-20T02:58:16.468Z,21.04
2023-04-20T02:59:16.654Z,21.04
2023-04-20T03:00:16.517Z,21.04
2023-04-20T03:01:16.578Z,21.07
2023-04-20T03:02:16.651Z,21.10
2023-04-20T03:03:16.685Z,21.04
2023-04-20T03:04:16.763Z,21.04
2023-04-20T03:05:16.747Z,21.06
2023-04-20T03:06:17.718Z,21.03
2023-04-20T03:07:16.973Z,21.06
2023-04-20T03:08:16.934Z,21.01
2023-04-20T03:09:17.277Z,21.04
2023-04-20T03:10:17.024Z,21.01
2023-04-20T03:11:17.059Z,21.01
2023-04-20T03:12:17.103Z,21.06
2023-04-20T03:13:17.342Z,21.01
2023-04-20T03:14:17.223Z,21.01
2023-04-20T03:15:17.258Z,21.01
2023-04-20T03:16:17.367Z,21.00
2023-04-20T03:17:17.370Z,21.00
2023-04-20T03:18:17.404Z,20.99
2023-04-20T03:19:17.551Z,21.00
2023-04-20T03:20:17.471Z,21.01
2023-04-20T03:21:17.490Z,21.00
2023-04-20T03:22:17.512Z,20.96
2023-04-20T03:23:17.545Z,21.01
2023-04-20T03:24:17.590Z,20.99
2023-04-20T03:25:17.620Z,21.00
2023-04-20T03:26:17.646Z,20.97
2023-04-20T03:27:17.668Z,20.96
2023-04-20T03:28:17.706Z,21.00
2023-04-20T03:29:18.098Z,20.99
2023-04-20T03:30:17.756Z,20.96
2023-04-20T03:31:17.796Z,20.99
2023-04-20T03:32:17.821Z,20.97
2023-04-20T03:33:17.839Z,20.97
2023-04-20T03:34:17.880Z,20.93
2023-04-20T03:35:17.905Z,20.97
2023-04-20T03:36:17.929Z,20.94
2023-04-20T03:37:17.958Z,20.94
2023-04-20T03:38:17.991Z,20.94
2023-04-20T03:39:18.442Z,20.92
2023-04-20T03:40:18.050Z,20.94
2023-04-20T03:41:18.086Z,20.94
2023-04-20T03:42:18.107Z,20.92
2023-04-20T03:43:18.141Z,20.92
2023-04-20T03:44:18.154Z,20.92
2023-04-20T03:45:18.187Z,20.92
2023-04-20T03:46:18.307Z,20.93
2023-04-20T03:47:18.227Z,20.92
2023-04-20T03:48:18.258Z,20.89
2023-04-20T03:49:18.422Z,20.89
2023-04-20T03:50:18.302Z,20.87
2023-04-20T03:51:19.228Z,20.89
2023-04-20T03:52:18.344Z,20.87
2023-04-20T03:53:18.367Z,20.87
2023-04-20T03:54:18.390Z,20.87
2023-04-20T03:55:18.435Z,20.87
2023-04-20T03:56:18.453Z,20.86
2023-04-20T03:57:18.464Z,20.87
2023-04-20T03:58:18.483Z,20.89
2023-04-20T03:59:18.674Z,20.84
2023-04-20T04:00:18.547Z,20.86
2023-04-20T04:01:18.577Z,20.86
2023-04-20T04:02:18.684Z,20.87
2023-04-20T04:03:18.959Z,20.87
2023-04-20T04:05:18.718Z,20.86
2023-04-20T04:06:18.714Z,20.87
2023-04-20T04:07:18.738Z,20.86
2023-04-20T04:08:18.759Z,20.83
2023-04-20T04:09:19.014Z,20.83
2023-04-20T04:10:18.849Z,20.82
2023-04-20T04:11:18.849Z,20.83
2023-04-20T04:12:18.887Z,20.82
2023-04-20T04:13:18.904Z,20.82
2023-04-20T04:14:20.734Z,20.83
2023-04-20T04:15:18.965Z,20.82
2023-04-20T04:16:19.038Z,20.79
2023-04-20T04:17:19.020Z,20.82
2023-04-20T04:18:19.052Z,20.80
2023-04-20T04:19:19.307Z,20.83
2023-04-20T04:20:19.115Z,20.84
2023-04-20T04:21:19.143Z,20.82
2023-04-20T04:22:19.167Z,20.80
2023-04-20T04:23:19.195Z,20.82
2023-04-20T04:24:19.221Z,20.82
2023-04-20T04:25:19.256Z,20.80
2023-04-20T04:26:19.315Z,20.80
2023-04-20T04:27:19.326Z,20.82
2023-04-20T04:28:20.337Z,20.79
2023-04-20T04:29:19.876Z,20.78
2023-04-20T04:30:19.416Z,20.79
2023-04-20T04:31:19.525Z,20.79
2023-04-20T04:32:20.544Z,20.78
2023-04-20T04:33:19.559Z,20.76
2023-04-20T04:34:19.551Z,20.79
2023-04-20T04:35:19.633Z,20.76
2023-04-20T04:36:19.606Z,20.76
2023-04-20T04:37:19.644Z,20.76
2023-04-20T04:38:19.699Z,20.76
2023-04-20T04:39:19.808Z,20.76
2023-04-20T04:40:19.728Z,20.76
2023-04-20T04:41:19.768Z,20.73
2023-04-20T04:42:19.801Z,20.73
2023-04-20T04:43:20.826Z,20.75
2023-04-20T04:44:20.739Z,20.76
2023-04-20T04:45:19.894Z,20.75
2023-04-20T04:46:19.975Z,20.73
2023-04-20T04:47:20.959Z,20.73
2023-04-20T04:48:19.979Z,20.73
2023-04-20T04:49:20.197Z,20.73
2023-04-20T04:50:20.010Z,20.73
2023-04-20T04:51:20.053Z,20.71
2023-04-20T04:52:20.044Z,20.75
2023-04-20T04:53:20.079Z,20.69
2023-04-20T04:54:20.113Z,20.73
2023-04-20T04:55:20.140Z,20.68
2023-04-20T04:56:20.177Z,20.71
2023-04-20T04:57:20.204Z,20.69
2023-04-20T04:58:20.232Z,20.72
2023-04-20T04:59:20.297Z,20.72
2023-04-20T05:00:20.321Z,20.71
2023-04-20T05:01:21.276Z,20.68
2023-04-20T05:02:20.607Z,20.71
2023-04-20T05:03:20.485Z,20.72
2023-04-20T05:04:20.536Z,20.71
2023-04-20T05:05:20.455Z,20.71
2023-04-20T05:06:20.485Z,20.71
2023-04-20T05:07:20.518Z,20.69
2023-04-20T05:08:20.546Z,20.69
2023-04-20T05:09:20.815Z,20.69
2023-04-20T05:10:20.630Z,20.66
2023-04-20T05:11:20.653Z,20.69
2023-04-20T05:12:20.661Z,20.69
2023-04-20T05:13:20.687Z,20.66
2023-04-20T05:14:20.718Z,20.65
2023-04-20T05:15:20.746Z,20.69
2023-04-20T05:16:20.834Z,20.68
2023-04-20T05:17:20.806Z,20.65
2023-04-20T05:18:20.878Z,20.68
2023-04-20T05:19:20.851Z,20.65
2023-04-20T05:20:20.863Z,20.62
2023-04-20T05:21:20.901Z,20.66
2023-04-20T05:22:20.929Z,20.65
2023-04-20T05:23:20.957Z,20.64
2023-04-20T05:24:20.984Z,20.65
2023-04-20T05:25:21.002Z,20.65
2023-04-20T05:26:21.031Z,20.65
2023-04-20T05:27:21.045Z,20.68
2023-04-20T05:28:21.077Z,20.69
2023-04-20T05:29:23.753Z,20.68
2023-04-20T05:30:22.093Z,20.71
2023-04-20T05:31:21.185Z,20.71
2023-04-20T05:32:21.270Z,20.75
2023-04-20T05:33:21.217Z,20.78
2023-04-20T05:34:21.231Z,20.80
2023-04-20T05:35:21.414Z,20.83
2023-04-20T05:36:21.270Z,20.86
2023-04-20T05:37:21.292Z,20.87
2023-04-20T05:38:21.304Z,20.90
2023-04-20T05:39:22.276Z,20.87
2023-04-20T05:40:21.361Z,20.93
2023-04-20T05:41:21.378Z,20.92
2023-04-20T05:42:21.401Z,20.99
2023-04-20T05:43:21.442Z,21.00
2023-04-20T05:44:21.455Z,21.04
2023-04-20T05:45:21.462Z,21.06
2023-04-20T05:46:21.598Z,21.07
2023-04-20T05:47:21.589Z,21.10
2023-04-20T05:48:21.672Z,21.10
2023-04-20T05:49:21.682Z,21.14
2023-04-20T05:50:24.245Z,21.13
2023-04-20T05:51:21.892Z,21.15
2023-04-20T05:52:22.732Z,21.21
2023-04-20T05:53:22.016Z,21.24
2023-04-20T05:54:22.260Z,21.18
2023-04-20T05:55:22.985Z,21.23
2023-04-20T05:56:22.125Z,21.24
2023-04-20T05:57:22.120Z,21.25
2023-04-20T05:58:22.148Z,21.23
2023-04-20T05:59:22.188Z,21.27
2023-04-20T06:00:25.218Z,21.28
2023-04-20T06:01:22.205Z,21.33
2023-04-20T06:02:22.378Z,21.34
2023-04-20T06:03:22.556Z,21.34
2023-04-20T06:04:22.612Z,21.37
2023-04-20T06:05:22.361Z,21.40
2023-04-20T06:06:22.310Z,21.40
2023-04-20T06:07:22.340Z,21.41
2023-04-20T06:08:22.348Z,21.42
2023-04-20T06:09:30.352Z,21.45
2023-04-20T06:10:22.395Z,21.46
2023-04-20T06:11:22.405Z,21.46
2023-04-20T06:12:23.439Z,21.46
2023-04-20T06:13:22.431Z,21.48
2023-04-20T06:14:22.454Z,21.44
2023-04-20T06:15:22.472Z,21.44
2023-04-20T06:16:22.548Z,21.48
2023-04-20T06:17:22.550Z,21.52
2023-04-20T06:18:22.530Z,21.59
2023-04-20T06:19:22.553Z,21.58
2023-04-20T06:20:22.563Z,21.61
2023-04-20T06:21:22.580Z,21.59
2023-04-20T06:22:22.600Z,21.70
2023-04-20T06:23:22.623Z,21.75
2023-04-20T06:24:24.266Z,21.82
2023-04-20T06:25:22.764Z,21.87
2023-04-20T06:26:22.693Z,21.80
2023-04-20T06:27:22.795Z,21.80
2023-04-20T06:28:22.858Z,21.73
2023-04-20T06:29:22.922Z,21.72
2023-04-20T06:30:22.968Z,21.70
2023-04-20T06:31:24.025Z,21.73
2023-04-20T06:32:23.024Z,21.70
2023-04-20T06:33:23.011Z,21.70
2023-04-20T06:34:23.031Z,21.69
2023-04-20T06:35:37.755Z,21.69
2023-04-20T06:36:23.097Z,21.69
2023-04-20T06:37:23.794Z,21.69
2023-04-20T06:38:23.080Z,21.68
2023-04-20T06:39:23.097Z,21.69
2023-04-20T06:40:23.098Z,21.69
2023-04-20T06:41:23.101Z,21.69
2023-04-20T06:42:23.175Z,21.69
2023-04-20T06:43:25.760Z,21.68
2023-04-20T06:44:23.372Z,21.70
2023-04-20T06:45:23.417Z,21.65
2023-04-20T06:46:23.476Z,21.70
2023-04-20T06:47:23.531Z,21.70
2023-04-20T06:48:32.272Z,21.70
2023-04-20T06:49:24.503Z,21.69
2023-04-20T06:50:23.517Z,21.66
2023-04-20T06:51:25.282Z,21.68
2023-04-20T06:52:24.282Z,21.68
2023-04-20T06:53:24.757Z,21.70
2023-04-20T06:54:23.810Z,21.69
2023-04-20T06:55:23.819Z,21.70
2023-04-20T06:56:23.857Z,21.70
2023-04-20T06:57:23.864Z,21.70
2023-04-20T06:58:23.876Z,21.75
2023-04-20T06:59:23.905Z,21.68
2023-04-20T07:00:23.962Z,21.66
2023-04-20T07:01:24.007Z,21.68
2023-04-20T07:02:24.108Z,21.66
2023-04-20T07:03:24.211Z,21.69
2023-04-20T07:04:24.099Z,21.65
2023-04-20T07:05:24.082Z,21.66
2023-04-20T07:06:24.093Z,21.69
2023-04-20T07:07:24.187Z,21.69
2023-04-20T07:08:24.133Z,21.66
2023-04-20T07:09:24.153Z,21.76
2023-04-20T07:10:24.160Z,21.72
2023-04-20T07:11:24.225Z,21.72
2023-04-20T07:12:24.246Z,21.72
2023-04-20T07:13:24.229Z,21.70
2023-04-20T07:14:24.247Z,21.73
2023-04-20T07:15:24.282Z,21.79
2023-04-20T07:16:24.354Z,21.86
2023-04-20T07:17:24.393Z,21.89
2023-04-20T07:18:24.368Z,21.92
2023-04-20T07:19:24.402Z,21.89
2023-04-20T07:20:24.458Z,21.89
2023-04-20T07:21:25.244Z,21.90
2023-04-20T07:22:24.475Z,21.85
2023-04-20T07:23:24.519Z,21.85
2023-04-20T07:24:24.697Z,21.79
2023-04-20T07:25:24.571Z,21.80
2023-04-20T07:26:24.593Z,21.80
2023-04-20T07:27:24.624Z,21.79
2023-04-20T07:28:24.692Z,21.69
2023-04-20T07:29:24.708Z,21.72
2023-04-20T07:30:24.750Z,21.69
2023-04-20T07:31:24.809Z,21.68
2023-04-20T07:32:24.863Z,21.69
2023-04-20T07:33:24.861Z,21.69
2023-04-20T07:34:25.696Z,21.65
2023-04-20T07:35:24.956Z,21.66
2023-04-20T07:36:25.009Z,21.63
2023-04-20T07:37:26.453Z,21.61
2023-04-20T07:38:25.100Z,21.56
2023-04-20T07:39:25.146Z,21.58
2023-04-20T07:40:25.229Z,21.58
2023-04-20T07:41:25.245Z,21.55
2023-04-20T07:42:25.294Z,21.55
2023-04-20T07:43:25.343Z,21.52
2023-04-20T07:44:25.410Z,21.49
2023-04-20T07:45:25.559Z,21.49
2023-04-20T07:46:25.591Z,21.46
2023-04-20T07:47:25.603Z,21.48
2023-04-20T07:48:25.638Z,21.48
2023-04-20T07:49:26.201Z,21.40
2023-04-20T07:50:25.758Z,21.44
2023-04-20T07:51:25.792Z,21.44
2023-04-20T07:52:25.872Z,21.46
2023-04-20T07:53:25.880Z,21.46
2023-04-20T07:54:25.954Z,21.48
2023-04-20T07:55:25.987Z,21.48
2023-04-20T07:56:26.102Z,21.48
2023-04-20T07:57:26.114Z,21.46
2023-04-20T07:58:26.154Z,21.48
2023-04-20T07:59:26.210Z,21.44
2023-04-20T08:00:26.286Z,21.45
2023-04-20T08:01:26.354Z,21.46
2023-04-20T08:02:26.445Z,21.41
2023-04-20T08:03:26.515Z,21.45
2023-04-20T08:04:26.715Z,21.42
2023-04-20T08:05:26.718Z,21.41
2023-04-20T08:06:26.587Z,21.40
2023-04-20T08:07:26.648Z,21.41
2023-04-20T08:08:26.698Z,21.38
2023-04-20T08:09:26.756Z,21.41
2023-04-20T08:10:26.823Z,21.38
2023-04-20T08:11:27.003Z,21.40
2023-04-20T08:12:26.914Z,21.40
2023-04-20T08:13:37.803Z,21.48
2023-04-20T08:14:45.792Z,21.38
2023-04-20T08:15:45.795Z,21.27
2023-04-20T08:16:45.851Z,21.27
2023-04-20T08:17:53.489Z,21.30
2023-04-20T08:18:45.855Z,21.27
2023-04-20T08:19:46.165Z,21.25
2023-04-20T08:20:45.954Z,21.18
2023-04-20T08:21:46.474Z,21.18
2023-04-20T08:22:45.923Z,21.15
2023-04-20T08:23:45.927Z,21.14
2023-04-20T08:24:45.923Z,21.17
2023-04-20T08:25:45.919Z,21.15
2023-04-20T08:26:45.930Z,21.20
2023-04-20T08:27:45.930Z,21.14
2023-04-20T08:28:45.918Z,21.13
2023-04-20T08:29:45.939Z,21.14
2023-04-20T08:30:45.910Z,21.13
2023-04-20T08:31:45.929Z,21.15
2023-04-20T08:32:46.043Z,21.11
2023-04-20T08:33:46.307Z,21.13
2023-04-20T08:34:45.933Z,21.07
2023-04-20T08:35:45.921Z,21.11
2023-04-20T08:36:46.008Z,21.03
2023-04-20T08:37:46.045Z,21.06
2023-04-20T08:38:46.098Z,21.07
2023-04-20T08:39:46.158Z,21.07
2023-04-20T08:40:46.210Z,21.07
2023-04-20T08:41:46.267Z,21.04
2023-04-20T08:42:46.335Z,21.01
2023-04-20T08:43:46.394Z,21.01
2023-04-20T08:44:46.470Z,21.01
2023-04-20T08:45:46.517Z,21.01
2023-04-20T08:46:46.650Z,21.01
2023-04-20T08:47:46.732Z,20.99
2023-04-20T08:48:46.693Z,21.00
2023-04-20T08:49:47.462Z,21.00
2023-04-20T08:50:46.805Z,20.97
2023-04-20T08:51:46.891Z,20.99
2023-04-20T08:52:46.929Z,20.97
2023-04-20T08:53:46.985Z,20.99
2023-04-20T08:54:56.190Z,20.97
2023-04-20T08:55:48.044Z,20.96
2023-04-20T08:56:47.109Z,20.94
2023-04-20T08:57:47.062Z,20.96
2023-04-20T08:58:47.076Z,20.93
2023-04-20T08:59:47.076Z,20.93
2023-04-20T09:00:47.072Z,20.93
2023-04-20T09:01:47.114Z,20.92
2023-04-20T09:02:47.209Z,20.93
2023-04-20T09:03:47.195Z,20.90
2023-04-20T09:04:47.254Z,20.90
2023-04-20T09:05:47.198Z,20.90
2023-04-20T09:06:47.252Z,20.89
2023-04-20T09:07:47.315Z,20.86
2023-04-20T09:08:47.382Z,20.84
2023-04-20T09:09:47.489Z,20.83
2023-04-20T09:10:47.519Z,20.83
2023-04-20T09:11:47.565Z,20.84
2023-04-20T09:12:47.609Z,20.83
2023-04-20T09:13:47.671Z,20.82
2023-04-20T09:14:47.745Z,20.80
2023-04-20T09:15:47.773Z,20.79
2023-04-20T09:16:47.864Z,20.83
2023-04-20T09:17:47.910Z,20.80
2023-04-20T09:18:47.950Z,20.79
2023-04-20T09:19:48.020Z,20.80
2023-04-20T09:20:48.064Z,20.79
2023-04-20T09:21:48.104Z,20.78
2023-04-20T09:22:48.062Z,20.78
2023-04-20T09:23:48.063Z,20.78
2023-04-20T09:24:48.091Z,20.76
2023-04-20T09:25:48.204Z,20.76
2023-04-20T09:26:48.075Z,20.75
2023-04-20T09:27:48.071Z,20.75
2023-04-20T09:28:48.073Z,20.73
2023-04-20T09:29:48.075Z,20.73
2023-04-20T09:30:48.073Z,20.72
2023-04-20T09:31:48.251Z,20.72
2023-04-20T09:32:48.261Z,20.71
2023-04-20T09:33:48.216Z,20.75
2023-04-20T09:34:48.271Z,20.75
2023-04-20T09:35:48.320Z,20.72
2023-04-20T09:36:48.388Z,20.66
2023-04-20T09:37:48.426Z,20.71
2023-04-20T09:38:48.493Z,20.68
2023-04-20T09:39:48.548Z,20.71
2023-04-20T09:40:48.553Z,20.65
2023-04-20T09:41:48.614Z,20.68
2023-04-20T09:42:48.657Z,20.69
2023-04-20T09:43:48.696Z,20.71
2023-04-20T09:44:48.725Z,20.66
2023-04-20T09:45:48.798Z,20.66
2023-04-20T09:46:48.821Z,20.65
2023-04-20T09:47:48.939Z,20.65
2023-04-20T09:48:48.872Z,20.66
2023-04-20T09:49:48.899Z,20.62
2023-04-20T09:50:50.648Z,20.62
2023-04-20T09:51:48.885Z,20.60
2023-04-20T09:52:48.879Z,20.62
2023-04-20T09:53:49.909Z,20.62
2023-04-20T09:54:48.865Z,20.60
2023-04-20T09:55:48.888Z,20.62
2023-04-20T09:56:48.894Z,20.62
2023-04-20T09:57:48.936Z,20.64
2023-04-20T09:58:48.950Z,20.62
2023-04-20T09:59:49.951Z,20.64
2023-04-20T10:00:49.030Z,20.56
2023-04-20T10:01:49.177Z,20.58
2023-04-20T10:02:49.155Z,20.59
2023-04-20T10:03:50.107Z,20.55
2023-04-20T10:04:49.433Z,20.58
2023-04-20T10:05:49.766Z,20.58
2023-04-20T10:06:49.293Z,20.56
2023-04-20T10:07:49.281Z,20.59
2023-04-20T10:08:49.381Z,20.58
2023-04-20T10:09:49.357Z,20.59
2023-04-20T10:10:49.420Z,20.60
2023-04-20T10:11:53.857Z,20.65
2023-04-20T10:12:49.641Z,20.71
2023-04-20T10:13:49.374Z,20.73
2023-04-20T10:14:49.357Z,20.76
2023-04-20T10:15:49.385Z,20.78
2023-04-20T10:16:49.476Z,20.82
2023-04-20T10:17:50.033Z,20.84
2023-04-20T10:18:49.545Z,20.84
2023-04-20T10:19:49.518Z,20.83
2023-04-20T10:20:49.573Z,20.72
2023-04-20T10:21:49.611Z,20.68
2023-04-20T10:22:54.554Z,20.71
2023-04-20T10:23:49.663Z,20.73
2023-04-20T10:24:49.686Z,20.76
2023-04-20T10:25:49.674Z,20.82
2023-04-20T10:26:49.698Z,20.83
2023-04-20T10:27:49.648Z,20.84
2023-04-20T10:28:49.649Z,20.84
2023-04-20T10:29:49.662Z,20.87
2023-04-20T10:30:49.686Z,20.90
2023-04-20T10:31:53.368Z,20.93
2023-04-20T10:32:49.684Z,20.93
2023-04-20T10:33:49.634Z,20.94
2023-04-20T10:34:51.494Z,20.96
2023-04-20T10:36:00.898Z,21.01
2023-04-20T10:36:52.853Z,21.00
2023-04-20T10:37:49.977Z,21.01
2023-04-20T10:38:49.770Z,21.04
2023-04-20T10:39:50.507Z,21.03
2023-04-20T10:40:54.892Z,21.07
2023-04-20T10:41:49.609Z,21.08
2023-04-20T10:42:49.602Z,21.08
2023-04-20T10:43:49.681Z,21.10
2023-04-20T10:44:49.644Z,21.11
2023-04-20T10:45:49.661Z,21.11
2023-04-20T10:46:49.841Z,21.14
2023-04-20T10:47:54.549Z,21.18
2023-04-20T10:48:49.754Z,21.20
2023-04-20T10:49:49.755Z,21.18
2023-04-20T10:50:50.490Z,21.21
2023-04-20T10:51:50.118Z,21.23
2023-04-20T10:52:50.036Z,21.24
2023-04-20T10:53:50.108Z,21.25
2023-04-20T10:54:50.086Z,21.28
2023-04-20T10:55:50.116Z,21.34
2023-04-20T10:56:50.192Z,21.34
2023-04-20T10:57:50.191Z,21.40
2023-04-20T10:58:50.952Z,21.41
2023-04-20T10:59:50.241Z,21.51
2023-04-20T11:00:50.251Z,21.51
2023-04-20T11:01:50.279Z,21.53
2023-04-20T11:02:53.109Z,21.55
2023-04-20T11:03:50.343Z,21.58
2023-04-20T11:04:50.542Z,21.61
2023-04-20T11:05:50.265Z,21.65
2023-04-20T11:06:50.301Z,21.61
2023-04-20T11:07:50.252Z,21.63
2023-04-20T11:08:50.222Z,21.66
2023-04-20T11:09:51.000Z,21.66
2023-04-20T11:11:01.236Z,21.66
2023-04-20T11:11:50.183Z,21.68
2023-04-20T11:12:57.006Z,21.66
2023-04-20T11:13:50.152Z,21.66
2023-04-20T11:14:51.167Z,21.65
2023-04-20T11:15:50.148Z,21.68
2023-04-20T11:16:51.887Z,21.66
2023-04-20T11:17:50.129Z,21.65
2023-04-20T11:18:50.088Z,21.66
2023-04-20T11:19:50.083Z,21.61
2023-04-20T11:20:50.111Z,21.61
2023-04-20T11:21:50.054Z,21.59
2023-04-20T11:22:52.068Z,21.53
2023-04-20T11:23:50.254Z,21.53
2023-04-20T11:24:50.041Z,21.56
2023-04-20T11:25:50.023Z,21.52
2023-04-20T11:26:49.993Z,21.49
2023-04-20T11:27:50.059Z,21.52
2023-04-20T11:28:49.979Z,21.52
2023-04-20T11:29:49.986Z,21.49
2023-04-20T11:30:49.968Z,21.51
2023-04-20T11:31:49.989Z,21.48
2023-04-20T11:32:50.028Z,21.45
2023-04-20T11:33:49.966Z,21.49
2023-04-20T11:34:55.997Z,21.46
2023-04-20T11:35:50.930Z,21.45
2023-04-20T11:36:49.923Z,21.44
2023-04-20T11:37:49.981Z,21.45
2023-04-20T11:38:49.904Z,21.41
2023-04-20T11:39:49.914Z,21.46
2023-04-20T11:40:49.889Z,21.41
2023-04-20T11:41:49.898Z,21.42
2023-04-20T11:42:50.504Z,21.41
2023-04-20T11:43:49.890Z,21.41
2023-04-20T11:44:49.883Z,21.42
2023-04-20T11:45:49.904Z,21.41
2023-04-20T11:46:49.873Z,21.38
2023-04-20T11:47:49.926Z,21.38
2023-04-20T11:48:49.959Z,21.40
2023-04-20T11:49:49.991Z,21.34
2023-04-20T11:50:50.046Z,21.35
2023-04-20T11:51:50.086Z,21.34
2023-04-20T11:52:50.131Z,21.34
2023-04-20T11:53:50.176Z,21.31
2023-04-20T11:54:50.252Z,21.33
2023-04-20T11:55:50.273Z,21.31
2023-04-20T11:56:50.321Z,21.33
2023-04-20T11:57:50.385Z,21.31
2023-04-20T11:58:50.418Z,21.30
2023-04-20T11:59:50.472Z,21.28
2023-04-20T12:00:50.526Z,21.28
2023-04-20T12:01:50.580Z,21.27
2023-04-20T12:02:50.808Z,21.27
2023-04-20T12:03:50.841Z,21.28
2023-04-20T12:04:50.795Z,21.28
2023-04-20T12:05:50.851Z,21.24
2023-04-20T12:06:50.843Z,21.25
2023-04-20T12:07:50.874Z,21.24
2023-04-20T12:08:50.935Z,21.27
2023-04-20T12:09:50.987Z,21.23
2023-04-20T12:10:50.978Z,21.21
2023-04-20T12:11:51.973Z,21.25
2023-04-20T12:12:50.967Z,21.23
2023-04-20T12:13:50.954Z,21.20
2023-04-20T12:14:50.956Z,21.21
2023-04-20T12:15:50.992Z,21.20
2023-04-20T12:16:51.021Z,21.18
2023-04-20T12:17:50.959Z,21.15
2023-04-20T12:18:50.928Z,21.15
2023-04-20T12:19:50.918Z,21.15
2023-04-20T12:20:50.961Z,21.18
2023-04-20T12:21:51.014Z,21.13
2023-04-20T12:22:51.095Z,21.18
2023-04-20T12:23:51.119Z,21.17
2023-04-20T12:24:51.170Z,21.14
2023-04-20T12:25:51.199Z,21.14
2023-04-20T12:26:51.243Z,21.14
2023-04-20T12:27:51.301Z,21.15
2023-04-20T12:28:51.350Z,21.17
2023-04-20T12:29:51.546Z,21.13
2023-04-20T12:30:51.493Z,21.10
2023-04-20T12:31:52.497Z,21.10
2023-04-20T12:32:51.568Z,21.08
2023-04-20T12:33:51.613Z,21.11
2023-04-20T12:34:51.662Z,21.06
2023-04-20T12:35:51.700Z,21.08
2023-04-20T12:36:51.760Z,21.08
2023-04-20T12:37:51.745Z,21.08
2023-04-20T12:38:51.728Z,21.08
2023-04-20T12:39:51.732Z,21.07
2023-04-20T12:40:51.733Z,21.10
2023-04-20T12:41:51.730Z,21.11
2023-04-20T12:42:51.726Z,21.08
2023-04-20T12:43:51.714Z,21.13
2023-04-20T12:44:51.706Z,21.07
2023-04-20T12:45:51.701Z,21.10
2023-04-20T12:46:51.819Z,21.04
2023-04-20T12:47:54.015Z,21.04
2023-04-20T12:48:51.680Z,21.04
2023-04-20T12:49:51.693Z,21.06
2023-04-20T12:50:51.674Z,21.06
2023-04-20T12:51:51.678Z,21.03
2023-04-20T12:52:51.680Z,20.97
2023-04-20T12:53:51.658Z,21.01